createdAt,value
2023-08-17T00:02:44.865Z,65.50
2023-08-17T00:07:01.879Z,65.52
2023-08-17T00:11:15.129Z,65.74
2023-08-17T00:15:23.914Z,65.79
2023-08-17T00:19:15.571Z,65.52
2023-08-17T00:23:38.506Z,65.75
2023-08-17T00:28:02.417Z,65.89
2023-08-17T00:31:59.914Z,66.17
2023-08-17T00:36:19.799Z,66.23
2023-08-17T00:40:33.652Z,66.60
2023-08-17T00:44:42.765Z,66.78
2023-08-17T00:48:49.469Z,66.91
2023-08-17T00:53:13.507Z,66.60
2023-08-17T00:57:37.399Z,66.68
2023-08-17T01:01:58.831Z,66.86
2023-08-17T01:06:15.113Z,66.84
2023-08-17T01:10:39.976Z,66.86
2023-08-17T01:14:40.315Z,66.80
2023-08-17T01:19:10.503Z,67.00
2023-08-17T01:23:34.615Z,66.95
2023-08-17T01:27:51.053Z,66.92
2023-08-17T01:31:33.584Z,66.80
2023-08-17T01:36:05.221Z,66.87
2023-08-17T01:40:20.157Z,66.76
2023-08-17T01:44:44.274Z,66.70
2023-08-17T01:48:58.369Z,67.02
2023-08-17T01:53:14.932Z,67.09
2023-08-17T01:57:31.495Z,66.70
2023-08-17T02:01:46.992Z,67.07
2023-08-17T02:06:00.917Z,66.65
2023-08-17T02:10:24.764Z,66.90
2023-08-17T02:14:41.727Z,66.66
2023-08-17T02:19:05.776Z,66.80
2023-08-17T02:23:22.496Z,66.26
2023-08-17T02:27:33.963Z,66.30
2023-08-17T02:31:48.301Z,66.96
2023-08-17T02:36:02.381Z,67.87
2023-08-17T02:40:27.245Z,68.09
2023-08-17T02:44:51.100Z,68.11
2023-08-17T02:48:54.182Z,68.69
2023-08-17T02:53:09.435Z,68.69
2023-08-17T02:57:33.438Z,68.81
2023-08-17T03:01:57.471Z,68.90
2023-08-17T03:06:14.311Z,68.33
2023-08-17T03:10:20.800Z,68.88
2023-08-17T03:14:37.720Z,69.14
2023-08-17T03:18:54.649Z,69.43
2023-08-17T03:23:18.745Z,69.32
2023-08-17T03:27:42.663Z,69.13
2023-08-17T03:32:05.480Z,69.10
2023-08-17T03:36:29.356Z,69.27
2023-08-17T03:40:47.094Z,69.61
2023-08-17T03:45:11.180Z,69.71
2023-08-17T03:49:35.173Z,69.77
2023-08-17T03:53:45.730Z,69.86
2023-08-17T03:58:09.607Z,69.82
2023-08-17T04:02:26.001Z,70.11
2023-08-17T04:06:41.731Z,70.15
2023-08-17T04:11:05.789Z,70.12
2023-08-17T04:15:29.616Z,69.78
2023-08-17T04:19:53.758Z,69.45
2023-08-17T04:24:17.698Z,69.11
2023-08-17T04:28:34.151Z,69.03
2023-08-17T04:32:57.818Z,68.44
2023-08-17T04:37:20.790Z,68.10
2023-08-17T04:41:44.762Z,67.30
2023-08-17T04:45:55.428Z,67.13
2023-08-17T04:50:12.073Z,66.87
2023-08-17T04:54:36.044Z,66.86
2023-08-17T04:58:47.825Z,66.75
2023-08-17T05:02:48.145Z,66.52
2023-08-17T05:07:10.909Z,66.27
2023-08-17T05:11:34.810Z,66.41
2023-08-17T05:15:58.805Z,66.12
2023-08-17T05:20:15.666Z,65.81
2023-08-17T05:24:37.511Z,65.42
2023-08-17T05:28:55.224Z,65.19
2023-08-17T05:33:05.133Z,64.90
2023-08-17T05:37:29.077Z,64.43
2023-08-17T05:41:46.674Z,64.30
2023-08-17T05:45:53.977Z,63.84
2023-08-17T05:50:17.905Z,63.50
2023-08-17T05:54:41.812Z,63.01
2023-08-17T05:58:57.290Z,62.70
2023-08-17T06:03:02.550Z,62.62
2023-08-17T06:07:18.566Z,62.33
2023-08-17T06:11:28.269Z,62.30
2023-08-17T06:15:53.188Z,61.99
2023-08-17T06:20:11.085Z,62.24
2023-08-17T06:24:17.991Z,61.67
2023-08-17T06:28:14.724Z,61.28
2023-08-17T06:32:12.373Z,61.26
2023-08-17T06:36:19.523Z,60.64
2023-08-17T06:40:13.258Z,60.22
2023-08-17T06:44:28.147Z,59.86
2023-08-17T06:48:22.428Z,60.12
2023-08-17T06:52:29.249Z,60.00
2023-08-17T06:56:21.511Z,59.49
2023-08-17T07:00:12.988Z,59.29
2023-08-17T07:03:56.997Z,59.11
2023-08-17T07:07:32.859Z,59.06
2023-08-17T07:11:09.861Z,58.79
2023-08-17T07:14:53.289Z,58.58
2023-08-17T07:18:31.903Z,58.62
2023-08-17T07:22:06.991Z,58.12
2023-08-17T07:25:58.838Z,57.79
2023-08-17T07:29:44.569Z,57.73
2023-08-17T07:33:16.698Z,57.38
2023-08-17T07:36:50.821Z,57.14
2023-08-17T07:40:24.526Z,56.29
2023-08-17T07:43:53.368Z,55.96
2023-08-17T07:47:24.301Z,55.10
2023-08-17T07:50:50.799Z,55.35
2023-08-17T07:54:26.756Z,54.96
2023-08-17T07:57:48.542Z,54.32
2023-08-17T08:01:21.944Z,54.23
2023-08-17T08:04:59.624Z,53.44
2023-08-17T08:08:18.838Z,53.47
2023-08-17T08:11:40.881Z,53.01
2023-08-17T08:15:11.816Z,52.87
2023-08-17T08:18:26.519Z,52.80
2023-08-17T08:22:05.253Z,52.76
2023-08-17T08:25:20.732Z,52.61
2023-08-17T08:28:45.316Z,52.87
2023-08-17T08:32:17.096Z,52.78
2023-08-17T08:35:54.961Z,52.76
2023-08-17T08:39:20.887Z,52.68
2023-08-17T08:42:53.604Z,52.85
2023-08-17T08:50:13.635Z,52.82
2023-08-17T08:53:55.012Z,53.05
2023-08-17T08:57:12.575Z,52.51
2023-08-17T09:00:38.649Z,52.26
2023-08-17T09:03:55.216Z,52.35
2023-08-17T09:07:44.357Z,52.27
2023-08-17T09:11:11.827Z,51.74
2023-08-17T09:14:29.702Z,52.18
2023-08-17T09:17:58.956Z,52.76
2023-08-17T09:21:35.211Z,52.15
2023-08-17T09:24:52.117Z,51.36
2023-08-17T09:28:17.769Z,50.57
2023-08-17T09:31:35.111Z,50.17
2023-08-17T09:34:49.423Z,49.40
2023-08-17T09:38:01.607Z,49.06
2023-08-17T09:41:27.683Z,48.45
2023-08-17T09:44:43.542Z,48.55
2023-08-17T09:48:12.848Z,48.18
2023-08-17T09:51:24.714Z,48.31
2023-08-17T09:54:33.027Z,47.87
2023-08-17T09:57:41.600Z,48.14
2023-08-17T10:01:02.080Z,47.62
2023-08-17T10:04:16.985Z,46.81
2023-08-17T10:07:42.300Z,46.23
2023-08-17T10:10:56.428Z,46.15
2023-08-17T10:14:12.610Z,46.41
2023-08-17T10:17:43.045Z,46.19
2023-08-17T10:20:55.391Z,45.56
2023-08-17T10:24:01.909Z,45.48
2023-08-17T10:27:10.405Z,44.64
2023-08-17T10:30:13.729Z,44.02
2023-08-17T10:33:17.953Z,43.67
2023-08-17T10:36:22.256Z,43.23
2023-08-17T10:39:29.477Z,43.20
2023-08-17T10:42:37.693Z,42.17
2023-08-17T10:45:40.915Z,41.53
2023-08-17T10:48:47.543Z,42.61
2023-08-17T10:52:04.901Z,42.66
2023-08-17T10:55:13.870Z,42.31
2023-08-17T10:58:17.347Z,42.38
2023-08-17T11:01:42.185Z,41.95
2023-08-17T11:04:54.021Z,41.35
2023-08-17T11:07:57.263Z,40.98
2023-08-17T11:11:05.173Z,40.54
2023-08-17T11:14:08.331Z,39.64
2023-08-17T11:17:11.346Z,38.93
2023-08-17T11:20:15.702Z,38.61
2023-08-17T11:23:20.041Z,38.89
2023-08-17T11:26:26.601Z,38.44
2023-08-17T11:29:33.301Z,38.86
2023-08-17T11:32:39.091Z,39.22
2023-08-17T11:35:42.496Z,38.52
2023-08-17T11:38:48.830Z,38.76
2023-08-17T11:41:53.556Z,39.38
2023-08-17T11:44:57.598Z,39.52
2023-08-17T11:48:04.988Z,39.56
2023-08-17T11:51:08.262Z,38.98
2023-08-17T11:54:13.504Z,38.91
2023-08-17T11:57:16.797Z,39.28
2023-08-17T12:00:22.520Z,39.65
2023-08-17T12:03:26.270Z,40.11
2023-08-17T12:06:29.796Z,40.43
2023-08-17T12:09:36.587Z,40.53
2023-08-17T12:12:42.163Z,40.64
2023-08-17T12:15:46.095Z,41.13
2023-08-17T12:18:53.533Z,41.26
2023-08-17T12:21:59.126Z,41.15
2023-08-17T12:25:04.879Z,40.83
2023-08-17T12:28:10.548Z,40.86
2023-08-17T12:31:21.944Z,41.16
2023-08-17T12:34:25.355Z,41.50
2023-08-17T12:37:30.984Z,41.72
2023-08-17T12:40:34.288Z,41.30
2023-08-17T12:43:40.106Z,40.73
2023-08-17T12:46:57.927Z,40.85
2023-08-17T12:50:04.951Z,40.80
2023-08-17T12:53:11.367Z,40.99
2023-08-17T12:56:17.966Z,41.31
2023-08-17T12:59:23.698Z,41.62
2023-08-17T13:02:32.247Z,41.86
2023-08-17T13:05:41.672Z,42.17
2023-08-17T13:08:47.964Z,42.24
2023-08-17T13:11:55.779Z,42.13
2023-08-17T13:15:02.196Z,42.71
2023-08-17T13:18:08.288Z,42.69
2023-08-17T13:21:16.967Z,42.22
2023-08-17T13:24:23.128Z,41.78
2023-08-17T13:27:29.400Z,42.00
2023-08-17T13:30:35.796Z,41.87
2023-08-17T13:33:45.256Z,41.83
2023-08-17T13:36:51.681Z,42.20
2023-08-17T13:39:57.306Z,42.19
2023-08-17T13:43:04.408Z,41.97
2023-08-17T13:46:19.160Z,41.79
2023-08-17T13:49:22.769Z,41.98
2023-08-17T13:52:28.615Z,42.00
2023-08-17T13:55:35.089Z,41.78
2023-08-17T13:58:41.380Z,41.06
2023-08-17T14:01:50.034Z,41.05
2023-08-17T14:04:56.076Z,41.27
2023-08-17T14:08:07.739Z,39.47
2023-08-17T14:11:13.833Z,39.84
2023-08-17T14:14:24.620Z,39.43
2023-08-17T14:17:30.982Z,39.02
2023-08-17T14:20:39.854Z,39.04
2023-08-17T14:23:53.476Z,38.78
2023-08-17T14:26:59.458Z,38.52
2023-08-17T14:30:08.318Z,38.62
2023-08-17T14:33:16.464Z,38.42
2023-08-17T14:36:20.975Z,38.05
2023-08-17T14:39:30.040Z,38.73
2023-08-17T14:42:36.703Z,38.59
2023-08-17T14:45:43.318Z,38.68
2023-08-17T14:48:49.686Z,39.01
2023-08-17T14:51:56.529Z,39.45
2023-08-17T14:55:05.827Z,39.47
2023-08-17T14:58:14.870Z,39.83
2023-08-17T15:01:20.425Z,40.01
2023-08-17T15:04:27.234Z,40.08
2023-08-17T15:07:36.817Z,40.44
2023-08-17T15:10:47.091Z,40.65
2023-08-17T15:13:58.747Z,40.84
2023-08-17T15:17:13.626Z,40.99
2023-08-17T15:20:20.068Z,41.03
2023-08-17T15:23:35.754Z,41.34
2023-08-17T15:26:39.402Z,41.22
2023-08-17T15:29:48.246Z,41.24
2023-08-17T15:32:56.684Z,41.34
2023-08-17T15:36:02.423Z,41.21
2023-08-17T15:39:16.768Z,41.34
2023-08-17T15:42:22.880Z,41.33
2023-08-17T15:45:29.058Z,41.49
2023-08-17T15:48:40.739Z,41.76
2023-08-17T15:51:46.712Z,42.03
2023-08-17T15:55:02.008Z,41.38
2023-08-17T15:58:10.899Z,41.34
2023-08-17T16:01:17.244Z,41.45
2023-08-17T16:04:26.663Z,41.80
2023-08-17T16:07:33.090Z,42.03
2023-08-17T16:10:39.016Z,42.33
2023-08-17T16:13:51.079Z,42.54
2023-08-17T16:16:57.814Z,42.81
2023-08-17T16:20:08.593Z,43.09
2023-08-17T16:23:22.311Z,43.06
2023-08-17T16:26:34.402Z,43.08
2023-08-17T16:29:43.996Z,43.21
2023-08-17T16:33:00.474Z,43.73
2023-08-17T16:36:15.908Z,44.84
2023-08-17T16:39:45.810Z,45.44
2023-08-17T16:43:12.632Z,46.07
2023-08-17T16:46:21.883Z,46.30
2023-08-17T16:49:35.012Z,46.88
2023-08-17T16:52:46.778Z,47.20
2023-08-17T16:55:56.137Z,47.34
2023-08-17T16:59:08.572Z,47.80
2023-08-17T17:02:20.157Z,48.41
2023-08-17T17:05:33.831Z,48.74
2023-08-17T17:08:43.443Z,48.92
2023-08-17T17:12:01.020Z,49.04
2023-08-17T17:15:28.905Z,49.33
2023-08-17T17:18:51.637Z,49.67
2023-08-17T17:22:21.087Z,49.94
2023-08-17T17:25:34.653Z,50.30
2023-08-17T17:28:53.922Z,50.53
2023-08-17T17:32:14.221Z,50.66
2023-08-17T17:35:37.608Z,50.49
2023-08-17T17:38:53.252Z,50.51
2023-08-17T17:42:25.219Z,51.11
2023-08-17T17:46:01.190Z,51.61
2023-08-17T17:49:34.327Z,51.82
2023-08-17T17:53:23.213Z,52.16
2023-08-17T17:56:59.764Z,52.52
2023-08-17T18:00:33.482Z,52.99
2023-08-17T18:04:15.388Z,53.49
2023-08-17T18:07:52.286Z,53.76
2023-08-17T18:11:28.367Z,53.76
2023-08-17T18:15:01.462Z,54.16
2023-08-17T18:18:23.652Z,53.74
2023-08-17T18:21:59.277Z,53.34
2023-08-17T18:25:33.044Z,53.45
2023-08-17T18:29:10.494Z,53.69
2023-08-17T18:32:40.729Z,54.01
2023-08-17T18:36:22.005Z,53.80
2023-08-17T18:39:58.885Z,53.74
2023-08-17T18:43:46.190Z,53.98
2023-08-17T18:47:17.472Z,53.78
2023-08-17T18:51:00.463Z,54.01
2023-08-17T18:54:22.140Z,53.92
2023-08-17T18:58:03.512Z,53.80
2023-08-17T19:01:37.569Z,54.12
2023-08-17T19:05:23.112Z,54.44
2023-08-17T19:09:10.258Z,54.84
2023-08-17T19:12:45.868Z,54.91
2023-08-17T19:16:32.609Z,55.04
2023-08-17T19:20:07.187Z,55.36
2023-08-17T19:23:35.752Z,55.36
2023-08-17T19:27:21.644Z,55.56
2023-08-17T19:31:17.229Z,55.97
2023-08-17T19:34:48.589Z,56.34
2023-08-17T19:38:35.351Z,56.66
2023-08-17T19:42:24.628Z,56.63
2023-08-17T19:46:14.021Z,56.59
2023-08-17T19:50:19.037Z,56.69
2023-08-17T19:54:21.017Z,56.92
2023-08-17T19:57:55.895Z,57.30
2023-08-17T20:02:05.272Z,58.08
2023-08-17T20:06:08.931Z,58.47
2023-08-17T20:10:00.678Z,58.76
2023-08-17T20:14:16.721Z,58.97
2023-08-17T20:17:43.644Z,59.12
2023-08-17T20:21:34.266Z,59.41
2023-08-17T20:25:30.203Z,59.35
2023-08-17T20:29:24.798Z,59.66
2023-08-17T20:33:28.436Z,60.19
2023-08-17T20:37:46.047Z,61.10
2023-08-17T20:42:01.513Z,61.00
2023-08-17T20:46:11.529Z,61.65
2023-08-17T20:50:17.732Z,61.85
2023-08-17T20:54:24.365Z,61.91
2023-08-17T20:58:41.691Z,61.93
2023-08-17T21:03:03.054Z,62.07
2023-08-17T21:07:15.688Z,62.45
2023-08-17T21:11:28.666Z,62.37
2023-08-17T21:15:33.810Z,62.59
2023-08-17T21:19:56.614Z,62.70
2023-08-17T21:24:01.842Z,62.85
2023-08-17T21:28:05.682Z,62.99
2023-08-17T21:32:08.297Z,63.25
2023-08-17T21:36:14.168Z,63.42
2023-08-17T21:40:08.443Z,63.74
2023-08-17T21:44:32.399Z,63.29
2023-08-17T21:48:56.361Z,63.66
2023-08-17T21:53:13.348Z,64.27
2023-08-17T21:57:09.749Z,64.14
2023-08-17T22:01:33.563Z,64.42
2023-08-17T22:05:48.714Z,64.52
2023-08-17T22:09:56.829Z,64.75
2023-08-17T22:14:13.341Z,64.70
2023-08-17T22:18:05.241Z,64.73
2023-08-17T22:21:13.942Z,64.57
2023-08-17T22:24:32.135Z,64.55
2023-08-17T22:27:41.069Z,64.07
2023-08-17T22:30:47.870Z,64.45
2023-08-17T22:33:57.447Z,64.56
2023-08-17T22:38:09.449Z,64.45
2023-08-17T22:42:32.348Z,65.25
2023-08-17T22:46:50.902Z,65.49
2023-08-17T22:50:48.240Z,66.08
2023-08-17T22:55:12.243Z,66.58
2023-08-17T22:59:25.284Z,66.91
2023-08-17T23:03:36.918Z,67.05
2023-08-17T23:08:00.889Z,67.09
2023-08-17T23:12:07.829Z,66.95
2023-08-17T23:16:25.018Z,67.29
2023-08-17T23:20:46.887Z,66.76
2023-08-17T23:24:49.479Z,67.11
2023-08-17T23:29:13.420Z,67.33
2023-08-17T23:33:33.820Z,67.08
2023-08-17T23:37:56.117Z,67.16
2023-08-17T23:42:20.135Z,68.38
2023-08-17T23:46:37.687Z,69.28
2023-08-17T23:51:01.665Z,69.47
2023-08-17T23:55:25.609Z,68.88
2023-08-17T23:59:49.564Z,67.14
